createdAt,value
2023-02-06T00:01:40.108Z,29.73
2023-02-06T00:04:07.582Z,39.47
2023-02-06T00:06:35.208Z,35.63
2023-02-06T00:09:03.786Z,28.97
2023-02-06T00:11:31.226Z,23.67
2023-02-06T00:13:58.772Z,28.67
2023-02-06T00:16:29.487Z,23.63
2023-02-06T00:18:58.867Z,24.17
2023-02-06T00:21:27.841Z,26.47
2023-02-06T00:23:57.814Z,31.80
2023-02-06T00:26:25.937Z,27.07
2023-02-06T00:28:53.417Z,25.93
2023-02-06T00:31:21.092Z,29.03
2023-02-06T00:33:48.489Z,27.37
2023-02-06T00:36:15.858Z,21.07
2023-02-06T00:38:43.255Z,21.93
2023-02-06T00:41:10.644Z,25.20
2023-02-06T00:43:37.999Z,23.33
2023-02-06T00:46:05.813Z,22.73
2023-02-06T00:48:33.309Z,24.53
2023-02-06T00:51:00.832Z,21.40
2023-02-06T00:53:28.307Z,20.07
2023-02-06T00:55:55.657Z,21.20
2023-02-06T00:58:23.497Z,24.20
2023-02-06T01:00:52.970Z,24.43
2023-02-06T01:03:21.116Z,22.63
2023-02-06T01:05:48.852Z,22.23
2023-02-06T01:08:16.302Z,25.87
2023-02-06T01:10:44.641Z,24.20
2023-02-06T01:13:12.205Z,24.20
2023-02-06T01:15:41.709Z,24.37
2023-02-06T01:18:09.178Z,25.13
2023-02-06T01:20:36.539Z,20.33
2023-02-06T01:23:04.567Z,21.70
2023-02-06T01:25:32.480Z,22.17
2023-02-06T01:27:59.949Z,23.10
2023-02-06T01:30:27.516Z,17.23
2023-02-06T01:32:57.256Z,23.80
2023-02-06T01:35:24.548Z,22.90
2023-02-06T01:37:51.955Z,20.60
2023-02-06T01:40:19.161Z,28.80
2023-02-06T01:42:46.498Z,19.97
2023-02-06T01:45:26.164Z,18.20
2023-02-06T01:48:02.068Z,21.70
2023-02-06T01:50:31.758Z,18.37
2023-02-06T01:52:59.477Z,21.47
2023-02-06T01:55:27.081Z,23.37
2023-02-06T01:57:54.642Z,21.27
2023-02-06T02:00:22.361Z,25.50
2023-02-06T02:02:50.593Z,20.47
2023-02-06T02:05:19.323Z,21.27
2023-02-06T02:07:53.884Z,22.40
2023-02-06T02:10:21.272Z,24.63
2023-02-06T02:12:49.033Z,19.90
2023-02-06T02:15:17.041Z,24.37
2023-02-06T02:18:10.079Z,21.83
2023-02-06T02:21:15.129Z,20.53
2023-02-06T02:23:48.391Z,23.03
2023-02-06T02:26:40.386Z,23.03
2023-02-06T02:29:43.161Z,24.63
2023-02-06T02:32:32.357Z,25.03
2023-02-06T02:35:05.928Z,26.53
2023-02-06T02:37:48.480Z,23.53
2023-02-06T02:40:26.086Z,20.90
2023-02-06T02:43:40.215Z,21.13
2023-02-06T02:46:19.751Z,23.20
2023-02-06T02:48:51.472Z,22.63
2023-02-06T02:51:19.262Z,24.10
2023-02-06T02:53:47.261Z,25.63
2023-02-06T02:56:21.416Z,30.90
2023-02-06T02:58:54.969Z,25.83
2023-02-06T03:01:28.629Z,24.87
2023-02-06T03:03:59.414Z,26.63
2023-02-06T03:06:48.170Z,24.03
2023-02-06T03:09:25.513Z,22.63
2023-02-06T03:12:04.947Z,23.43
2023-02-06T03:14:39.637Z,26.37
2023-02-06T03:17:10.983Z,22.27
2023-02-06T03:19:45.641Z,21.87
2023-02-06T03:22:15.417Z,22.13
2023-02-06T03:24:43.158Z,22.13
2023-02-06T03:27:14.783Z,17.93
2023-02-06T03:29:43.217Z,22.50
2023-02-06T03:32:24.055Z,19.43
2023-02-06T03:34:59.593Z,18.70
2023-02-06T03:37:28.870Z,17.43
2023-02-06T03:39:59.246Z,17.43
2023-02-06T03:42:29.546Z,14.27
2023-02-06T03:45:20.065Z,18.23
2023-02-06T03:47:48.985Z,16.13
2023-02-06T03:50:18.093Z,15.07
2023-02-06T03:52:49.848Z,15.47
2023-02-06T03:55:21.807Z,15.40
2023-02-06T03:57:53.711Z,19.00
2023-02-06T04:00:21.341Z,14.87
2023-02-06T04:02:51.297Z,15.23
2023-02-06T04:05:19.566Z,16.03
2023-02-06T04:07:47.034Z,15.07
2023-02-06T04:10:14.547Z,17.50
2023-02-06T04:12:41.961Z,15.10
2023-02-06T04:15:09.858Z,17.47
2023-02-06T04:17:53.542Z,17.17
2023-02-06T04:20:25.087Z,16.40
2023-02-06T04:22:52.502Z,13.80
2023-02-06T04:25:19.950Z,16.23
2023-02-06T04:27:47.534Z,18.10
2023-02-06T04:30:15.647Z,16.20
2023-02-06T04:32:43.021Z,16.03
2023-02-06T04:35:10.465Z,16.00
2023-02-06T04:37:37.805Z,14.83
2023-02-06T04:40:05.576Z,13.57
2023-02-06T04:42:33.150Z,16.47
2023-02-06T04:45:00.388Z,16.87
2023-02-06T04:47:28.014Z,13.37
2023-02-06T04:49:55.361Z,14.03
2023-02-06T04:52:22.734Z,13.43
2023-02-06T04:54:50.194Z,14.53
2023-02-06T04:57:17.942Z,12.97
2023-02-06T04:59:45.354Z,14.17
2023-02-06T05:02:12.721Z,12.93
2023-02-06T05:04:40.149Z,13.93
2023-02-06T05:07:07.673Z,14.33
2023-02-06T05:09:35.022Z,13.90
2023-02-06T05:12:02.920Z,15.17
2023-02-06T05:14:30.417Z,13.83
2023-02-06T05:16:58.069Z,13.40
2023-02-06T05:19:25.430Z,12.70
2023-02-06T05:21:52.881Z,16.07
2023-02-06T05:24:20.206Z,16.43
2023-02-06T05:26:47.714Z,15.87
2023-02-06T05:29:15.037Z,15.83
2023-02-06T05:31:42.406Z,19.23
2023-02-06T05:34:10.582Z,13.80
2023-02-06T05:36:38.335Z,17.23
2023-02-06T05:39:05.909Z,20.83
2023-02-06T05:41:33.441Z,17.93
2023-02-06T05:44:01.033Z,16.63
2023-02-06T05:46:28.483Z,16.27
2023-02-06T05:48:55.836Z,16.47
2023-02-06T05:51:23.153Z,16.37
2023-02-06T05:53:50.355Z,17.47
2023-02-06T05:56:17.742Z,16.67
2023-02-06T05:58:45.232Z,16.90
2023-02-06T06:01:13.301Z,18.77
2023-02-06T06:03:40.549Z,17.70
2023-02-06T06:06:08.228Z,16.27
2023-02-06T06:08:36.784Z,15.63
2023-02-06T06:11:04.219Z,15.83
2023-02-06T06:13:32.501Z,16.77
2023-02-06T06:16:00.207Z,17.20
2023-02-06T06:18:27.632Z,15.50
2023-02-06T06:20:55.398Z,15.47
2023-02-06T06:23:23.057Z,14.97
2023-02-06T06:25:50.585Z,17.07
2023-02-06T06:28:18.204Z,16.17
2023-02-06T06:30:45.722Z,16.77
2023-02-06T06:33:15.249Z,19.70
2023-02-06T06:35:42.886Z,17.07
2023-02-06T06:38:10.422Z,17.50
2023-02-06T06:40:39.759Z,18.73
2023-02-06T06:43:07.290Z,17.70
2023-02-06T06:45:35.334Z,19.17
2023-02-06T06:48:02.942Z,18.97
2023-02-06T06:50:30.540Z,19.13
2023-02-06T06:52:58.147Z,16.60
2023-02-06T06:55:25.857Z,17.40
2023-02-06T06:57:53.486Z,19.80
2023-02-06T07:00:21.405Z,16.23
2023-02-06T07:02:48.951Z,20.30
2023-02-06T07:05:16.466Z,17.73
2023-02-06T07:07:44.351Z,18.80
2023-02-06T07:10:13.099Z,19.70
2023-02-06T07:12:40.675Z,19.27
2023-02-06T07:15:08.682Z,18.97
2023-02-06T07:17:36.610Z,21.23
2023-02-06T07:20:04.426Z,16.63
2023-02-06T07:22:32.019Z,19.90
2023-02-06T07:24:59.636Z,19.40
2023-02-06T07:27:27.130Z,22.47
2023-02-06T07:29:54.487Z,19.40
2023-02-06T07:32:22.204Z,17.40
2023-02-06T07:34:49.662Z,19.93
2023-02-06T07:37:17.504Z,21.03
2023-02-06T07:39:44.845Z,17.60
2023-02-06T07:42:12.745Z,17.87
2023-02-06T07:44:51.425Z,17.00
2023-02-06T07:47:19.014Z,17.00
2023-02-06T07:49:46.700Z,24.57
2023-02-06T07:52:15.709Z,30.40
2023-02-06T07:54:43.304Z,21.43
2023-02-06T07:57:10.824Z,21.27
2023-02-06T07:59:38.312Z,19.33
2023-02-06T08:02:05.869Z,17.07
2023-02-06T08:04:35.584Z,22.07
2023-02-06T08:07:04.591Z,25.83
2023-02-06T08:09:33.175Z,28.87
2023-02-06T08:12:00.614Z,21.43
2023-02-06T08:14:28.610Z,17.63
2023-02-06T08:16:56.209Z,16.43
2023-02-06T08:19:23.846Z,18.50
2023-02-06T08:21:51.366Z,21.30
2023-02-06T08:24:19.041Z,16.07
2023-02-06T08:26:46.582Z,17.50
2023-02-06T08:29:14.366Z,17.70
2023-02-06T08:31:42.861Z,17.57
2023-02-06T08:34:14.024Z,20.53
2023-02-06T08:36:43.465Z,18.30
2023-02-06T08:39:13.941Z,16.83
2023-02-06T08:41:43.293Z,20.53
2023-02-06T08:44:16.121Z,16.50
2023-02-06T08:46:45.325Z,19.70
2023-02-06T08:49:19.141Z,16.07
2023-02-06T08:51:49.214Z,17.93
2023-02-06T08:54:19.863Z,19.67
2023-02-06T08:56:48.202Z,16.87
2023-02-06T08:59:17.219Z,15.50
2023-02-06T09:01:46.696Z,15.63
2023-02-06T09:04:14.617Z,16.20
2023-02-06T09:06:44.049Z,15.67
2023-02-06T09:09:12.344Z,16.10
2023-02-06T09:11:40.758Z,11.53
2023-02-06T09:14:12.641Z,15.13
2023-02-06T09:16:40.193Z,16.77
2023-02-06T09:19:08.051Z,14.30
2023-02-06T09:21:36.786Z,11.90
2023-02-06T09:24:06.988Z,11.20
2023-02-06T09:26:44.792Z,11.03
2023-02-06T09:29:18.243Z,12.97
2023-02-06T09:31:45.839Z,11.53
2023-02-06T09:34:13.982Z,10.07
2023-02-06T09:36:41.510Z,12.37
2023-02-06T09:39:09.612Z,13.87
2023-02-06T09:41:46.430Z,33.00
2023-02-06T09:44:19.830Z,13.93
2023-02-06T09:46:52.981Z,11.03
2023-02-06T09:49:31.903Z,10.73
2023-02-06T09:52:15.955Z,10.37
2023-02-06T09:54:51.740Z,10.57
2023-02-06T09:57:31.419Z,11.30
2023-02-06T10:00:13.702Z,9.67
2023-02-06T10:02:41.190Z,13.07
2023-02-06T10:05:36.808Z,13.07
2023-02-06T10:08:28.921Z,11.77
2023-02-06T10:11:00.817Z,9.27
2023-02-06T10:13:33.257Z,10.23
2023-02-06T10:16:11.910Z,11.17
2023-02-06T10:18:47.913Z,10.07
2023-02-06T10:21:32.032Z,11.63
2023-02-06T10:24:13.564Z,10.63
2023-02-06T10:26:41.383Z,10.00
2023-02-06T10:29:18.294Z,12.00
2023-02-06T10:32:04.258Z,11.90
2023-02-06T10:34:59.627Z,11.10
2023-02-06T10:37:48.409Z,10.17
2023-02-06T10:40:24.605Z,9.83
2023-02-06T10:43:07.063Z,10.13
2023-02-06T10:45:45.386Z,9.57
2023-02-06T10:48:29.324Z,9.07
2023-02-06T10:51:07.466Z,10.17
2023-02-06T10:53:39.048Z,10.10
2023-02-06T10:56:11.340Z,8.30
2023-02-06T10:58:48.386Z,8.83
2023-02-06T11:01:25.560Z,8.50
2023-02-06T11:04:21.425Z,13.30
2023-02-06T11:06:49.534Z,9.17
2023-02-06T11:09:16.941Z,8.20
2023-02-06T11:11:48.609Z,8.17
2023-02-06T11:14:22.392Z,11.30
2023-02-06T11:16:50.749Z,7.47
2023-02-06T11:19:32.212Z,8.17
2023-02-06T11:22:13.214Z,8.77
2023-02-06T11:24:58.690Z,12.30
2023-02-06T11:27:27.374Z,9.77
2023-02-06T11:29:55.188Z,9.10
2023-02-06T11:33:03.785Z,10.00
2023-02-06T11:35:39.777Z,10.80
2023-02-06T11:38:22.872Z,10.57
2023-02-06T11:40:57.143Z,10.53
2023-02-06T11:43:28.206Z,10.13
2023-02-06T11:46:31.243Z,10.67
2023-02-06T11:49:07.640Z,12.80
2023-02-06T11:52:00.691Z,11.63
2023-02-06T11:54:30.075Z,9.80
2023-02-06T11:57:03.301Z,9.50
2023-02-06T11:59:34.469Z,11.77
2023-02-06T12:02:21.586Z,10.03
2023-02-06T12:04:50.354Z,13.00
2023-02-06T12:07:29.909Z,13.07
2023-02-06T12:09:57.474Z,10.13
2023-02-06T12:12:38.857Z,12.30
2023-02-06T12:15:44.765Z,10.20
2023-02-06T12:18:20.211Z,10.07
2023-02-06T12:20:55.794Z,14.77
2023-02-06T12:23:37.804Z,16.17
2023-02-06T12:26:15.532Z,11.03
2023-02-06T12:28:55.849Z,9.83
2023-02-06T12:31:27.151Z,11.07
2023-02-06T12:34:15.072Z,10.63
2023-02-06T12:37:14.246Z,9.53
2023-02-06T12:39:43.157Z,11.33
2023-02-06T12:42:38.379Z,11.17
2023-02-06T12:45:33.999Z,11.20
2023-02-06T12:48:06.590Z,10.80
2023-02-06T12:50:46.511Z,13.33
2023-02-06T12:53:18.421Z,10.17
2023-02-06T12:56:03.798Z,9.40
2023-02-06T12:58:54.057Z,10.50
2023-02-06T13:01:47.539Z,10.97
2023-02-06T13:04:29.839Z,10.67
2023-02-06T13:07:19.773Z,9.33
2023-02-06T13:10:02.877Z,14.07
2023-02-06T13:12:32.464Z,13.90
2023-02-06T13:15:06.854Z,19.30
2023-02-06T13:17:42.469Z,16.83
2023-02-06T13:20:13.367Z,11.57
2023-02-06T13:22:50.790Z,10.90
2023-02-06T13:25:30.281Z,12.50
2023-02-06T13:28:23.027Z,11.20
2023-02-06T13:31:01.577Z,9.43
2023-02-06T13:33:51.888Z,9.67
2023-02-06T13:36:47.703Z,10.10
2023-02-06T13:39:27.689Z,11.70
2023-02-06T13:41:56.470Z,11.03
2023-02-06T13:44:33.602Z,11.10
2023-02-06T13:47:28.470Z,11.63
2023-02-06T13:50:16.902Z,12.13
2023-02-06T13:53:11.687Z,11.10
2023-02-06T13:55:57.009Z,11.40
2023-02-06T13:58:49.388Z,16.00
2023-02-06T14:01:23.233Z,12.90
2023-02-06T14:03:52.631Z,12.13
2023-02-06T14:06:25.607Z,13.90
2023-02-06T14:09:11.244Z,12.07
2023-02-06T14:12:25.090Z,12.53
2023-02-06T14:15:19.717Z,12.40
2023-02-06T14:18:07.024Z,13.07
2023-02-06T14:20:48.201Z,13.67
2023-02-06T14:23:21.823Z,14.20
2023-02-06T14:26:32.661Z,14.90
2023-02-06T14:29:04.934Z,15.07
2023-02-06T14:31:40.364Z,12.07
2023-02-06T14:34:44.503Z,11.23
2023-02-06T14:37:32.769Z,12.47
2023-02-06T14:40:07.253Z,11.97
2023-02-06T14:42:41.635Z,10.57
2023-02-06T14:45:22.659Z,12.47
2023-02-06T14:47:51.204Z,11.63
2023-02-06T14:50:26.364Z,10.03
2023-02-06T14:53:04.669Z,9.97
2023-02-06T14:55:38.180Z,13.53
2023-02-06T14:58:17.550Z,10.40
2023-02-06T15:00:45.226Z,11.13
2023-02-06T15:03:19.040Z,11.57
2023-02-06T15:05:46.958Z,12.37
2023-02-06T15:08:20.599Z,12.27
2023-02-06T15:10:56.394Z,11.17
2023-02-06T15:13:25.989Z,12.13
2023-02-06T15:15:57.247Z,10.70
2023-02-06T15:18:25.041Z,9.80
2023-02-06T15:20:58.114Z,9.53
2023-02-06T15:23:42.419Z,8.17
2023-02-06T15:26:23.213Z,10.77
2023-02-06T15:28:59.945Z,8.20
2023-02-06T15:31:29.229Z,8.37
2023-02-06T15:34:01.339Z,8.63
2023-02-06T15:36:34.765Z,9.80
2023-02-06T15:39:04.481Z,10.17
2023-02-06T15:41:32.486Z,8.07
2023-02-06T15:44:09.577Z,12.40
2023-02-06T15:46:37.869Z,8.17
2023-02-06T15:49:10.939Z,7.47
2023-02-06T15:51:40.969Z,8.03
2023-02-06T15:54:19.598Z,12.63
2023-02-06T15:57:01.149Z,8.00
2023-02-06T15:59:29.026Z,12.00
2023-02-06T16:01:58.058Z,11.00
2023-02-06T16:04:39.614Z,7.57
2023-02-06T16:07:13.159Z,5.70
2023-02-06T16:09:53.042Z,6.57
2023-02-06T16:12:21.607Z,5.47
2023-02-06T16:14:57.087Z,4.50
2023-02-06T16:17:32.184Z,5.63
2023-02-06T16:20:02.968Z,6.07
2023-02-06T16:22:32.200Z,5.60
2023-02-06T16:25:23.073Z,8.07
2023-02-06T16:27:51.393Z,4.57
2023-02-06T16:30:28.242Z,5.17
2023-02-06T16:32:58.273Z,6.23
2023-02-06T16:35:26.528Z,5.80
2023-02-06T16:37:54.705Z,5.77
2023-02-06T16:40:22.277Z,6.20
2023-02-06T16:42:50.094Z,5.40
2023-02-06T16:45:21.286Z,5.27
2023-02-06T16:47:49.213Z,5.37
2023-02-06T16:50:16.890Z,5.50
2023-02-06T16:52:55.019Z,6.30
2023-02-06T16:55:24.760Z,4.97
2023-02-06T16:57:56.429Z,5.43
2023-02-06T17:00:26.700Z,5.27
2023-02-06T17:02:54.725Z,5.40
2023-02-06T17:05:24.737Z,5.20
2023-02-06T17:07:52.335Z,5.83
2023-02-06T17:10:24.016Z,6.23
2023-02-06T17:12:52.186Z,5.93
2023-02-06T17:15:20.170Z,6.10
2023-02-06T17:17:47.624Z,5.70
2023-02-06T17:20:32.278Z,5.20
2023-02-06T17:22:59.896Z,5.67
2023-02-06T17:25:27.543Z,6.20
2023-02-06T17:27:55.038Z,6.20
2023-02-06T17:30:25.363Z,5.80
2023-02-06T17:32:53.266Z,5.53
2023-02-06T17:35:21.696Z,5.43
2023-02-06T17:37:49.406Z,5.70
2023-02-06T17:40:20.548Z,5.70
2023-02-06T17:42:48.705Z,4.97
2023-02-06T17:45:16.493Z,5.53
2023-02-06T17:47:44.195Z,4.97
2023-02-06T17:50:17.762Z,5.80
2023-02-06T17:52:45.254Z,5.63
2023-02-06T17:55:12.788Z,6.03
2023-02-06T17:57:40.539Z,4.53
2023-02-06T18:00:14.119Z,4.47
2023-02-06T18:02:41.776Z,4.60
2023-02-06T18:05:09.960Z,3.67
2023-02-06T18:07:38.889Z,4.00
2023-02-06T18:10:07.326Z,6.27
2023-02-06T18:12:34.852Z,3.87
2023-02-06T18:15:02.276Z,3.30
2023-02-06T18:17:30.818Z,4.57
2023-02-06T18:19:58.137Z,3.57
2023-02-06T18:22:25.990Z,3.43
2023-02-06T18:24:53.256Z,3.47
2023-02-06T18:27:21.479Z,3.73
2023-02-06T18:29:52.578Z,3.50
2023-02-06T18:32:19.981Z,3.80
2023-02-06T18:34:47.543Z,5.33
2023-02-06T18:37:15.532Z,3.50
2023-02-06T18:39:43.161Z,3.30
2023-02-06T18:42:30.587Z,4.30
2023-02-06T18:44:57.913Z,2.83
2023-02-06T18:47:25.380Z,3.70
2023-02-06T18:49:52.739Z,3.17
2023-02-06T18:52:20.260Z,4.27
2023-02-06T18:54:48.662Z,5.03
2023-02-06T18:57:16.015Z,5.83
2023-02-06T18:59:43.641Z,8.83
2023-02-06T19:02:11.820Z,8.80
2023-02-06T19:04:40.541Z,6.70
2023-02-06T19:07:08.960Z,6.87
2023-02-06T19:09:36.481Z,6.40
2023-02-06T19:12:04.501Z,6.20
2023-02-06T19:14:31.762Z,6.67
2023-02-06T19:16:59.392Z,6.57
2023-02-06T19:19:26.853Z,7.87
2023-02-06T19:21:55.139Z,7.63
2023-02-06T19:24:23.326Z,7.87
2023-02-06T19:26:50.792Z,6.77
2023-02-06T19:29:33.588Z,7.67
2023-02-06T19:32:07.540Z,8.53
2023-02-06T19:34:37.138Z,8.57
2023-02-06T19:37:06.007Z,9.10
2023-02-06T19:39:34.415Z,7.97
2023-02-06T19:42:06.869Z,7.73
2023-02-06T19:44:34.667Z,7.53
2023-02-06T19:47:02.797Z,6.87
2023-02-06T19:49:30.572Z,8.93
2023-02-06T19:51:58.250Z,8.00
2023-02-06T19:54:26.034Z,7.77
2023-02-06T19:56:53.814Z,7.77
2023-02-06T19:59:27.108Z,8.63
2023-02-06T20:01:57.466Z,8.77
2023-02-06T20:04:27.952Z,7.37
2023-02-06T20:06:56.306Z,9.27
2023-02-06T20:09:25.311Z,8.30
2023-02-06T20:11:52.728Z,9.03
2023-02-06T20:14:20.605Z,7.87
2023-02-06T20:16:49.257Z,9.90
2023-02-06T20:19:20.213Z,9.20
2023-02-06T20:21:50.825Z,10.13
2023-02-06T20:24:21.957Z,8.23
2023-02-06T20:26:55.555Z,8.60
2023-02-06T20:29:29.443Z,9.27
2023-02-06T20:31:57.487Z,8.93
2023-02-06T20:34:26.583Z,9.73
2023-02-06T20:36:55.391Z,10.97
2023-02-06T20:39:23.673Z,8.77
2023-02-06T20:41:51.220Z,7.77
2023-02-06T20:44:20.285Z,7.73
2023-02-06T20:46:48.442Z,7.50
2023-02-06T20:49:19.345Z,8.20
2023-02-06T20:51:48.975Z,9.73
2023-02-06T20:54:18.125Z,10.20
2023-02-06T20:56:46.460Z,9.07
2023-02-06T20:59:16.099Z,11.23
2023-02-06T21:01:44.266Z,10.53
2023-02-06T21:04:13.152Z,11.10
2023-02-06T21:06:41.803Z,10.63
2023-02-06T21:09:10.440Z,10.93
2023-02-06T21:11:44.640Z,12.13
2023-02-06T21:14:12.565Z,11.27
2023-02-06T21:16:40.970Z,10.77
2023-02-06T21:19:11.038Z,9.40
2023-02-06T21:21:38.972Z,9.47
2023-02-06T21:24:07.190Z,12.20
2023-02-06T21:26:35.343Z,10.43
2023-02-06T21:29:04.082Z,8.63
2023-02-06T21:31:36.855Z,10.53
2023-02-06T21:34:21.246Z,8.97
2023-02-06T21:36:49.401Z,10.37
2023-02-06T21:39:22.476Z,10.20
2023-02-06T21:41:51.872Z,10.67
2023-02-06T21:44:21.087Z,9.00
2023-02-06T21:46:48.444Z,10.90
2023-02-06T21:49:16.122Z,11.93
2023-02-06T21:51:43.508Z,12.30
2023-02-06T21:54:11.094Z,10.80
2023-02-06T21:56:38.802Z,12.20
2023-02-06T21:59:06.893Z,10.57
2023-02-06T22:01:34.498Z,11.63
2023-02-06T22:04:03.342Z,9.70
2023-02-06T22:06:30.989Z,12.50
2023-02-06T22:09:05.061Z,13.20
2023-02-06T22:11:32.850Z,14.83
2023-02-06T22:14:05.920Z,11.87
2023-02-06T22:16:33.790Z,10.30
2023-02-06T22:19:01.198Z,10.27
2023-02-06T22:21:30.560Z,14.40
2023-02-06T22:24:00.270Z,12.67
2023-02-06T22:26:30.109Z,10.97
2023-02-06T22:28:59.065Z,12.60
2023-02-06T22:31:29.529Z,12.07
2023-02-06T22:33:58.966Z,10.93
2023-02-06T22:36:29.288Z,11.97
2023-02-06T22:39:03.417Z,12.97
2023-02-06T22:41:31.025Z,12.37
2023-02-06T22:43:58.584Z,13.33
2023-02-06T22:46:29.070Z,11.17
2023-02-06T22:48:56.601Z,14.50
2023-02-06T22:51:25.088Z,12.53
2023-02-06T22:53:53.303Z,12.73
2023-02-06T22:56:31.050Z,11.33
2023-02-06T22:59:12.357Z,13.03
2023-02-06T23:01:45.517Z,11.40
2023-02-06T23:04:16.742Z,13.20
2023-02-06T23:06:45.011Z,12.37
2023-02-06T23:09:15.172Z,12.30
2023-02-06T23:11:42.878Z,12.60
2023-02-06T23:14:12.761Z,11.53
2023-02-06T23:16:40.434Z,13.13
2023-02-06T23:19:08.585Z,13.83
2023-02-06T23:21:39.144Z,17.50
2023-02-06T23:24:08.418Z,14.37
2023-02-06T23:26:36.057Z,21.37
2023-02-06T23:29:08.429Z,16.37
2023-02-06T23:31:36.409Z,14.57
2023-02-06T23:34:04.095Z,15.67
2023-02-06T23:36:31.586Z,15.77
2023-02-06T23:39:02.052Z,14.33
2023-02-06T23:41:29.431Z,14.00
2023-02-06T23:44:00.007Z,15.30
2023-02-06T23:46:29.633Z,13.43
2023-02-06T23:48:57.364Z,14.60
2023-02-06T23:51:25.275Z,12.93
2023-02-06T23:53:52.888Z,14.30
2023-02-06T23:56:26.949Z,18.83
2023-02-06T23:58:55.981Z,15.20
